Map

Track Data

SID SEASON NUMBER BASIN SUBBASIN NAME ISO_TIME NATURE LAT LON WMO_WIND WMO_PRES WMO_AGENCY TRACK_TYPE DIST2LAND LANDFALL IFLAG USA_AGENCY USA_ATCF_ID USA_LAT USA_LON USA_RECORD USA_STATUS USA_WIND USA_PRES USA_SSHS USA_R34_NE USA_R34_SE USA_R34_SW USA_R34_NW USA_R50_NE USA_R50_SE USA_R50_SW USA_R50_NW USA_R64_NE USA_R64_SE USA_R64_SW USA_R64_NW USA_POCI USA_ROCI USA_RMW USA_EYE TOKYO_LAT TOKYO_LON TOKYO_GRADE TOKYO_WIND TOKYO_PRES TOKYO_R50_DIR TOKYO_R50_LONG TOKYO_R50_SHORT TOKYO_R30_DIR TOKYO_R30_LONG TOKYO_R30_SHORT TOKYO_LAND CMA_LAT CMA_LON CMA_CAT CMA_WIND CMA_PRES HKO_LAT HKO_LON HKO_CAT HKO_WIND HKO_PRES NEWDELHI_LAT NEWDELHI_LON NEWDELHI_GRADE NEWDELHI_WIND NEWDELHI_PRES NEWDELHI_CI NEWDELHI_DP NEWDELHI_POCI REUNION_LAT REUNION_LON REUNION_TYPE REUNION_WIND REUNION_PRES REUNION_TNUM REUNION_CI REUNION_RMW REUNION_R34_NE REUNION_R34_SE REUNION_R34_SW REUNION_R34_NW REUNION_R50_NE REUNION_R50_SE REUNION_R50_SW REUNION_R50_NW REUNION_R64_NE REUNION_R64_SE REUNION_R64_SW REUNION_R64_NW BOM_LAT BOM_LON BOM_TYPE BOM_WIND BOM_PRES BOM_TNUM BOM_CI BOM_RMW BOM_R34_NE BOM_R34_SE BOM_R34_SW BOM_R34_NW BOM_R50_NE BOM_R50_SE BOM_R50_SW BOM_R50_NW BOM_R64_NE BOM_R64_SE BOM_R64_SW BOM_R64_NW BOM_ROCI BOM_POCI BOM_EYE BOM_POS_METHOD BOM_PRES_METHOD NADI_LAT NADI_LON NADI_CAT NADI_WIND NADI_PRES WELLINGTON_LAT WELLINGTON_LON WELLINGTON_WIND WELLINGTON_PRES DS824_LAT DS824_LON DS824_STAGE DS824_WIND DS824_PRES TD9636_LAT TD9636_LON TD9636_STAGE TD9636_WIND TD9636_PRES TD9635_LAT TD9635_LON TD9635_WIND TD9635_PRES TD9635_ROCI NEUMANN_LAT NEUMANN_LON NEUMANN_CLASS NEUMANN_WIND NEUMANN_PRES MLC_LAT MLC_LON MLC_CLASS MLC_WIND MLC_PRES USA_GUST BOM_GUST BOM_GUST_PER REUNION_GUST REUNION_GUST_PER USA_SEAHGT USA_SEARAD_NE USA_SEARAD_SE USA_SEARAD_SW USA_SEARAD_NW STORM_SPEED STORM_DIR
1922256N10313 1922 49 NA NA NOT_NAMED 1922-09-13 00:00:00 TS 10.4000 -46.8000 30 hurdat_atl main 844 817 O_____________ hurdat_atl AL021922 10.4000 -46.8000 TD 30 -1 13 283
1922256N10313 1922 49 NA NA NOT_NAMED 1922-09-13 03:00:00 TS 10.5478 -47.4599 main 811 790 P_____________ AL021922 10.5478 -47.4599 TD 30 -1 13 283
1922256N10313 1922 49 NA NA NOT_NAMED 1922-09-13 06:00:00 TS 10.7000 -48.1000 30 hurdat_atl main 790 760 O_____________ hurdat_atl AL021922 10.7000 -48.1000 TD 30 -1 13 284
1922256N10313 1922 49 NA NA NOT_NAMED 1922-09-13 09:00:00 TS 10.8573 -48.7075 main 769 744 P_____________ AL021922 10.8573 -48.7075 TD 30 -1 12 284
1922256N10313 1922 49 NA NA NOT_NAMED 1922-09-13 12:00:00 TS 11.0000 -49.3000 30 hurdat_atl main 744 723 O_____________ hurdat_atl AL021922 11.0000 -49.3000 TD 30 -1 12 281
1922256N10313 1922 49 NA NA NOT_NAMED 1922-09-13 15:00:00 TS 11.0924 -49.9002 main 723 707 P_____________ AL021922 11.0924 -49.9002 TD 32 -1 12 280
1922256N10313 1922 49 NA NA NOT_NAMED 1922-09-13 18:00:00 TS 11.2000 -50.5000 35 hurdat_atl main 707 698 O_____________ hurdat_atl AL021922 11.2000 -50.5000 TS 35 0 12 284
1922256N10313 1922 49 NA NA NOT_NAMED 1922-09-13 21:00:00 TS 11.3849 -51.1000 main 703 693 P_____________ AL021922 11.3849 -51.1000 TS 37 0 12 289
1922256N10313 1922 49 NA NA NOT_NAMED 1922-09-14 00:00:00 TS 11.6000 -51.7000 40 hurdat_atl main 695 685 O_____________ hurdat_atl AL021922 11.6000 -51.7000 TS 40 0 13 289
1922256N10313 1922 49 NA NA NOT_NAMED 1922-09-14 03:00:00 TS 11.7849 -52.3077 main 693 686 P_____________ AL021922 11.7849 -52.3077 TS 42 0 12 289
1922256N10313 1922 49 NA NA NOT_NAMED 1922-09-14 06:00:00 TS 12.0000 -52.9000 45 hurdat_atl main 698 695 O_____________ hurdat_atl AL021922 12.0000 -52.9000 TS 45 0 12 293
1922256N10313 1922 49 NA NA NOT_NAMED 1922-09-14 09:00:00 TS 12.2698 -53.4502 main 721 719 P_____________ AL021922 12.2698 -53.4502 TS 47 0 12 299
1922256N10313 1922 49 NA NA NOT_NAMED 1922-09-14 12:00:00 TS 12.6000 -54.0000 50 hurdat_atl main 750 736 O_____________ hurdat_atl AL021922 12.6000 -54.0000 TS 50 0 13 303
1922256N10313 1922 49 NA NA NOT_NAMED 1922-09-14 15:00:00 TS 12.9849 -54.5926 main 738 699 P_____________ AL021922 12.9849 -54.5926 TS 52 0 14 304
1922256N10313 1922 49 NA NA NOT_NAMED 1922-09-14 18:00:00 TS 13.4000 -55.2000 55 hurdat_atl main 699 663 O_____________ hurdat_atl AL021922 13.4000 -55.2000 TS 55 0 14 305
1922256N10313 1922 49 NA NA NOT_NAMED 1922-09-14 21:00:00 TS 13.7923 -55.7928 main 663 635 P_____________ AL021922 13.7923 -55.7928 TS 57 0 14 304
1922256N10313 1922 49 NA NA NOT_NAMED 1922-09-15 00:00:00 TS 14.2000 -56.4000 60 hurdat_atl main 635 615 O_____________ hurdat_atl AL021922 14.2000 -56.4000 TS 60 0 15 305
1922256N10313 1922 49 NA NA NOT_NAMED 1922-09-15 03:00:00 TS 14.6575 -57.0574 main 616 604 P_____________ AL021922 14.6575 -57.0574 TS 60 0 16 306
1922256N10313 1922 49 NA NA NOT_NAMED 1922-09-15 06:00:00 TS 15.1000 -57.7000 60 hurdat_atl main 608 602 O_____________ hurdat_atl AL021922 15.1000 -57.7000 TS 60 0 14 305
1922256N10313 1922 49 NA NA NOT_NAMED 1922-09-15 09:00:00 TS 15.4723 -58.2728 main 611 606 P_____________ AL021922 15.4723 -58.2728 TS 65 1 13 303
1922256N10313 1922 49 NA NA NOT_NAMED 1922-09-15 12:00:00 TS 15.8000 -58.8000 70 hurdat_atl main 618 614 O_____________ hurdat_atl AL021922 15.8000 -58.8000 HU 70 1 12 303
1922256N10313 1922 49 NA NA NOT_NAMED 1922-09-15 15:00:00 TS 16.1073 -59.3003 main 631 628 P_____________ AL021922 16.1073 -59.3003 HU 75 1 11 302
1922256N10313 1922 49 NA NA NOT_NAMED 1922-09-15 18:00:00 TS 16.4000 -59.8000 80 hurdat_atl main 647 586 O_____________ hurdat_atl AL021922 16.4000 -59.8000 HU 80 1 12 300
1922256N10313 1922 49 NA NA NOT_NAMED 1922-09-15 21:00:00 TS 16.7000 -60.3501 main 576 516 P_____________ AL021922 16.7000 -60.3501 HU 85 2 12 300
1922256N10313 1922 49 NA CS NOT_NAMED 1922-09-16 00:00:00 TS 17.0000 -60.9000 90 hurdat_atl main 516 456 O_____________ hurdat_atl AL021922 17.0000 -60.9000 HU 90 2 12 301
1922256N10313 1922 49 NA CS NOT_NAMED 1922-09-16 03:00:00 TS 17.3073 -61.4076 main 456 397 P_____________ AL021922 17.3073 -61.4076 HU 95 2 11 302
1922256N10313 1922 49 NA CS NOT_NAMED 1922-09-16 06:00:00 TS 17.6000 -61.9000 100 hurdat_atl main 397 341 O_____________ hurdat_atl AL021922 17.6000 -61.9000 HU 100 3 11 300
1922256N10313 1922 49 NA CS NOT_NAMED 1922-09-16 09:00:00 TS 17.8499 -62.4003 main 341 285 P_____________ AL021922 17.8499 -62.4003 HU 100 3 11 298
1922256N10313 1922 49 NA CS NOT_NAMED 1922-09-16 12:00:00 TS 18.1000 -62.9000 100 hurdat_atl main 285 232 O_____________ hurdat_atl AL021922 18.1000 -62.9000 HU 100 3 11 300
1922256N10313 1922 49 NA CS NOT_NAMED 1922-09-16 15:00:00 TS 18.3924 -63.4001 main 232 182 P_____________ AL021922 18.3924 -63.4001 HU 100 3 11 302
1922256N10313 1922 49 NA CS NOT_NAMED 1922-09-16 18:00:00 TS 18.7000 -63.9000 100 hurdat_atl main 182 143 O_____________ hurdat_atl AL021922 18.7000 -63.9000 HU 100 3 11 302
1922256N10313 1922 49 NA NA NOT_NAMED 1922-09-16 21:00:00 TS 18.9924 -64.4003 main 143 122 P_____________ AL021922 18.9924 -64.4003 HU 100 3 11 302
1922256N10313 1922 49 NA NA NOT_NAMED 1922-09-17 00:00:00 TS 19.3000 -64.9000 100 hurdat_atl main 124 118 O_____________ hurdat_atl AL021922 19.3000 -64.9000 HU 100 3 12 305
1922256N10313 1922 49 NA NA NOT_NAMED 1922-09-17 03:00:00 TS 19.6499 -65.4075 main 135 135 P_____________ AL021922 19.6499 -65.4075 HU 100 3 12 307
1922256N10313 1922 49 NA NA NOT_NAMED 1922-09-17 06:00:00 TS 20.0000 -65.9000 100 hurdat_atl main 178 178 O_____________ hurdat_atl AL021922 20.0000 -65.9000 HU 100 3 11 305
1922256N10313 1922 49 NA NA NOT_NAMED 1922-09-17 09:00:00 TS 20.3076 -66.3951 main 212 212 P_____________ AL021922 20.3076 -66.3951 HU 102 3 10 305
1922256N10313 1922 49 NA NA NOT_NAMED 1922-09-17 12:00:00 TS 20.6000 -66.8000 105 hurdat_atl main 246 246 O_____________ hurdat_atl AL021922 20.6000 -66.8000 HU 105 3 9 313
1922256N10313 1922 49 NA NA NOT_NAMED 1922-09-17 15:00:00 TS 20.8923 -67.0602 main 279 279 P_____________ AL021922 20.8923 -67.0602 HU 105 3 7 328
1922256N10313 1922 49 NA NA NOT_NAMED 1922-09-17 18:00:00 TS 21.2000 -67.2000 105 hurdat_atl main 305 305 O_____________ hurdat_atl AL021922 21.2000 -67.2000 HU 105 3 7 343
1922256N10313 1922 49 NA NA NOT_NAMED 1922-09-17 21:00:00 TS 21.5500 -67.2727 main 322 322 P_____________ AL021922 21.5500 -67.2727 HU 105 3 7 352
1922256N10313 1922 49 NA NA NOT_NAMED 1922-09-18 00:00:00 TS 21.9000 -67.3000 105 hurdat_atl main 357 357 O_____________ hurdat_atl AL021922 21.9000 -67.3000 HU 105 3 7 354
1922256N10313 1922 49 NA NA NOT_NAMED 1922-09-18 03:00:00 TS 22.2000 -67.3500 main 379 379 P_____________ AL021922 22.2000 -67.3500 HU 105 3 6 352
1922256N10313 1922 49 NA NA NOT_NAMED 1922-09-18 06:00:00 TS 22.5000 -67.4000 105 hurdat_atl main 408 408 O_____________ hurdat_atl AL021922 22.5000 -67.4000 HU 105 3 6 352
1922256N10313 1922 49 NA NA NOT_NAMED 1922-09-18 09:00:00 TS 22.8350 -67.4500 main 433 433 P_____________ AL021922 22.8350 -67.4500 HU 105 3 7 353
1922256N10313 1922 49 NA NA NOT_NAMED 1922-09-18 12:00:00 TS 23.2000 -67.5000 105 hurdat_atl main 474 474 O_____________ hurdat_atl AL021922 23.2000 -67.5000 HU 105 3 8 354
1922256N10313 1922 49 NA NA NOT_NAMED 1922-09-18 15:00:00 TS 23.5850 -67.5500 main 511 511 P_____________ AL021922 23.5850 -67.5500 HU 105 3 8 354
1922256N10313 1922 49 NA NA NOT_NAMED 1922-09-18 18:00:00 TS 24.0000 -67.6000 105 hurdat_atl main 550 550 O_____________ hurdat_atl AL021922 24.0000 -67.6000 HU 105 3 9 354
1922256N10313 1922 49 NA NA NOT_NAMED 1922-09-18 21:00:00 TS 24.4425 -67.6500 main 586 586 P_____________ AL021922 24.4425 -67.6500 HU 105 3 9 355
1922256N10313 1922 49 NA NA NOT_NAMED 1922-09-19 00:00:00 TS 24.9000 -67.7000 105 hurdat_atl main 637 637 O_____________ hurdat_atl AL021922 24.9000 -67.7000 HU 105 3 9 354
1922256N10313 1922 49 NA NA NOT_NAMED 1922-09-19 03:00:00 TS 25.3650 -67.7574 main 686 686 P_____________ AL021922 25.3650 -67.7574 HU 105 3 9 355
1922256N10313 1922 49 NA NA NOT_NAMED 1922-09-19 06:00:00 TS 25.8000 -67.8000 105 hurdat_atl main 728 728 O_____________ hurdat_atl AL021922 25.8000 -67.8000 HU 105 3 8 356
1922256N10313 1922 49 NA NA NOT_NAMED 1922-09-19 09:00:00 TS 26.1575 -67.8224 main 769 769 P_____________ AL021922 26.1575 -67.8224 HU 105 3 7 0
1922256N10313 1922 49 NA NA NOT_NAMED 1922-09-19 12:00:00 TS 26.5000 -67.8000 105 hurdat_atl main 793 793 O_____________ hurdat_atl AL021922 26.5000 -67.8000 HU 105 3 8 6
1922256N10313 1922 49 NA NA NOT_NAMED 1922-09-19 15:00:00 TS 26.9075 -67.7226 main 833 833 P_____________ AL021922 26.9075 -67.7226 HU 105 3 8 13
1922256N10313 1922 49 NA NA NOT_NAMED 1922-09-19 18:00:00 TS 27.3000 -67.6000 105 hurdat_atl main 873 873 O_____________ hurdat_atl AL021922 27.3000 -67.6000 HU 105 3 7 18
1922256N10313 1922 49 NA NA NOT_NAMED 1922-09-19 21:00:00 TS 27.6075 -67.4648 main 905 905 P_____________ AL021922 27.6075 -67.4648 HU 105 3 7 24
1922256N10313 1922 49 NA NA NOT_NAMED 1922-09-20 00:00:00 TS 27.9000 -67.3000 105 hurdat_atl main 944 944 O_____________ hurdat_atl AL021922 27.9000 -67.3000 HU 105 3 7 26
1922256N10313 1922 49 NA NA NOT_NAMED 1922-09-20 03:00:00 TS 28.2500 -67.1075 main 991 991 P_____________ AL021922 28.2500 -67.1075 HU 105 3 8 27
1922256N10313 1922 49 NA NA NOT_NAMED 1922-09-20 06:00:00 TS 28.6000 -66.9000 105 hurdat_atl main 1029 1029 O_____________ hurdat_atl AL021922 28.6000 -66.9000 HU 105 3 7 29
1922256N10313 1922 49 NA NA NOT_NAMED 1922-09-20 09:00:00 TS 28.9000 -66.6998 main 1068 1068 P_____________ AL021922 28.9000 -66.6998 HU 105 3 7 30
1922256N10313 1922 49 NA NA NOT_NAMED 1922-09-20 12:00:00 TS 29.2000 -66.5000 105 hurdat_atl main 1106 1106 O_____________ hurdat_atl AL021922 29.2000 -66.5000 HU 105 3 7 29
1922256N10313 1922 49 NA NA NOT_NAMED 1922-09-20 15:00:00 TS 29.5425 -66.2999 main 1109 1094 P_____________ AL021922 29.5425 -66.2999 HU 105 3 8 26
1922256N10313 1922 49 NA NA NOT_NAMED 1922-09-20 18:00:00 TS 29.9000 -66.1000 105 hurdat_atl main 1094 1081 O_____________ hurdat_atl AL021922 29.9000 -66.1000 HU 105 3 8 26
1922256N10313 1922 49 NA NA NOT_NAMED 1922-09-20 21:00:00 TS 30.2500 -65.8999 main 1089 1076 P_____________ AL021922 30.2500 -65.8999 HU 102 3 8 26
1922256N10313 1922 49 NA NA NOT_NAMED 1922-09-21 00:00:00 TS 30.6000 -65.7000 100 hurdat_atl main 1078 1067 O_____________ hurdat_atl AL021922 30.6000 -65.7000 HU 100 3 8 26
1922256N10313 1922 49 NA NA NOT_NAMED 1922-09-21 03:00:00 TS 30.9274 -65.5071 main 1075 1065 P_____________ AL021922 30.9274 -65.5071 HU 100 3 8 26
1922256N10313 1922 49 NA NA NOT_NAMED 1922-09-21 06:00:00 TS 31.3000 -65.3000 100 hurdat_atl main 1067 1059 O_____________ hurdat_atl AL021922 31.3000 -65.3000 HU 100 3 9 23
1922256N10313 1922 49 NA NA NOT_NAMED 1922-09-21 09:00:00 TS 31.7547 -65.0940 main 1056 1053 P_____________ AL021922 31.7547 -65.0940 HU 100 3 11 23
1922256N10313 1922 49 NA NA NOT_NAMED 1922-09-21 12:00:00 TS 32.3000 -64.8000 100 960 hurdat_atl main 1057 1052 O_____________ hurdat_atl AL021922 32.3000 -64.8000 HU 100 960 3 13 27
1922256N10313 1922 49 NA NA NOT_NAMED 1922-09-21 15:00:00 TS 32.9118 -64.3960 main 1066 1052 P_____________ AL021922 32.9118 -64.3960 HU 100 3 16 33
1922256N10313 1922 49 NA NA NOT_NAMED 1922-09-21 18:00:00 TS 33.6000 -63.8000 100 hurdat_atl main 1052 1024 O_____________ hurdat_atl AL021922 33.6000 -63.8000 HU 100 3 18 40
1922256N10313 1922 49 NA NA NOT_NAMED 1922-09-21 21:00:00 TS 34.3277 -62.9745 main 1025 974 P_____________ AL021922 34.3277 -62.9745 HU 100 3 21 45
1922256N10313 1922 49 NA NA NOT_NAMED 1922-09-22 00:00:00 TS 35.1000 -62.0000 100 hurdat_atl main 976 918 O_____________ hurdat_atl AL021922 35.1000 -62.0000 HU 100 3 22 45
1922256N10313 1922 49 NA NA NOT_NAMED 1922-09-22 03:00:00 TS 35.9135 -61.0510 main 918 875 P_____________ AL021922 35.9135 -61.0510 HU 97 3 23 45
1922256N10313 1922 49 NA NA NOT_NAMED 1922-09-22 06:00:00 TS 36.7000 -60.0000 95 hurdat_atl main 879 866 O_____________ hurdat_atl AL021922 36.7000 -60.0000 HU 95 2 23 51
1922256N10313 1922 49 NA NA NOT_NAMED 1922-09-22 09:00:00 TS 37.3948 -58.7865 main 871 851 P_____________ AL021922 37.3948 -58.7865 HU 92 2 24 57
1922256N10313 1922 49 NA NA NOT_NAMED 1922-09-22 12:00:00 TS 38.0000 -57.5000 90 hurdat_atl main 854 838 O_____________ hurdat_atl AL021922 38.0000 -57.5000 HU 90 2 23 61
1922256N10313 1922 49 NA NA NOT_NAMED 1922-09-22 15:00:00 TS 38.5211 -56.2472 main 847 840 P_____________ AL021922 38.5211 -56.2472 HU 87 2 22 63
1922256N10313 1922 49 NA NA NOT_NAMED 1922-09-22 18:00:00 TS 39.0000 -55.0000 85 hurdat_atl main 852 789 O_____________ hurdat_atl AL021922 39.0000 -55.0000 HU 85 2 22 63
1922256N10313 1922 49 NA NA NOT_NAMED 1922-09-22 21:00:00 TS 39.4987 -53.7482 main 789 735 P_____________ AL021922 39.4987 -53.7482 HU 82 1 22 63
1922256N10313 1922 49 NA NA NOT_NAMED 1922-09-23 00:00:00 ET 40.0000 -52.5000 80 hurdat_atl main 735 695 O_____________ hurdat_atl AL021922 40.0000 -52.5000 EX 80 -4 22 62
1922256N10313 1922 49 NA NA NOT_NAMED 1922-09-23 03:00:00 ET 40.4987 -51.2482 main 696 669 P_____________ AL021922 40.4987 -51.2482 EX 77 -4 21 62
1922256N10313 1922 49 NA NA NOT_NAMED 1922-09-23 06:00:00 ET 41.0000 -50.0000 75 hurdat_atl main 672 663 O_____________ hurdat_atl AL021922 41.0000 -50.0000 EX 75 -4 21 63
1922256N10313 1922 49 NA NA NOT_NAMED 1922-09-23 09:00:00 ET 41.4599 -48.7821 main 666 666 P_____________ AL021922 41.4599 -48.7821 EX 75 -4 21 62
1922256N10313 1922 49 NA NA NOT_NAMED 1922-09-23 12:00:00 ET 42.0000 -47.5000 75 hurdat_atl main 682 678 O_____________ hurdat_atl AL021922 42.0000 -47.5000 EX 75 -4 23 58
1922256N10313 1922 49 NA NA NOT_NAMED 1922-09-23 15:00:00 ET 42.6697 -46.1414 main 707 706 P_____________ AL021922 42.6697 -46.1414 EX 75 -4 27 56
1922256N10313 1922 49 NA NA NOT_NAMED 1922-09-23 18:00:00 ET 43.5000 -44.5000 75 971 hurdat_atl main 757 757 O_____________ hurdat_atl AL021922 43.5000 -44.5000 EX 75 971 -4 32 56
1922256N10313 1922 49 NA NA NOT_NAMED 1922-09-23 21:00:00 ET 44.4593 -42.4405 main 851 851 P_____________ AL021922 44.4593 -42.4405 EX 75 -4 38 58
1922256N10313 1922 49 NA NA NOT_NAMED 1922-09-24 00:00:00 ET 45.5000 -40.0000 75 hurdat_atl main 984 984 O_____________ hurdat_atl AL021922 45.5000 -40.0000 EX 75 -4 42 60
1922256N10313 1922 49 NA NA NOT_NAMED 1922-09-24 03:00:00 ET 46.5400 -37.2326 main 1166 1166 P_____________ AL021922 46.5400 -37.2326 EX 75 -4 43 63
1922256N10313 1922 49 NA NA NOT_NAMED 1922-09-24 06:00:00 ET 47.5000 -34.4000 75 hurdat_atl main 1358 1358 O_____________ hurdat_atl AL021922 47.5000 -34.4000 EX 75 -4 41 64
1922256N10313 1922 49 NA NA NOT_NAMED 1922-09-24 09:00:00 ET 48.3215 -31.7877 main 1493 1381 P_____________ AL021922 48.3215 -31.7877 EX 75 -4 36 65
1922256N10313 1922 49 NA NA NOT_NAMED 1922-09-24 12:00:00 ET 49.0000 -29.5000 75 hurdat_atl main 1374 1233 O_____________ hurdat_atl AL021922 49.0000 -29.5000 EX 75 -4 30 66
1922256N10313 1922 49 NA NA NOT_NAMED 1922-09-24 15:00:00 ET 49.5681 -27.6012 main 1223 1107 P_____________ AL021922 49.5681 -27.6012 EX 75 -4 25 66
1922256N10313 1922 49 NA NA NOT_NAMED 1922-09-24 18:00:00 ET 50.0000 -26.0000 75 952 hurdat_atl main 1100 989 O_____________ hurdat_atl AL021922 50.0000 -26.0000 EX 75 952 -4 21 70
1922256N10313 1922 49 NA NA NOT_NAMED 1922-09-24 21:00:00 ET 50.2989 -24.4580 main 989 888 P_____________ AL021922 50.2989 -24.4580 EX 75 948 -4 20 75
1922256N10313 1922 49 NA NA NOT_NAMED 1922-09-25 00:00:00 ET 50.5000 -23.0000 75 hurdat_atl main 881 774 I_____________ hurdat_atl AL021922 50.5000 -23.0000 EX 75 945 -4 19 79
1922256N10313 1922 49 NA NA NOT_NAMED 1922-09-25 03:00:00 ET 50.6719 -21.4612 main 774 676 P_____________ AL021922 50.6719 -21.4612 EX 75 942 -4 19 81
1922256N10313 1922 49 NA NA NOT_NAMED 1922-09-25 06:00:00 ET 50.8000 -20.0000 75 939 hurdat_atl main 670 579 O_____________ hurdat_atl AL021922 50.8000 -20.0000 EX 75 939 -4 18 82
1922256N10313 1922 49 NA NA NOT_NAMED 1922-09-25 09:00:00 ET 50.9215 -18.6525 main 579 503 P_____________ AL021922 50.9215 -18.6525 EX 75 -4 16 83
1922256N10313 1922 49 NA NA NOT_NAMED 1922-09-25 12:00:00 ET 51.0000 -17.5000 75 hurdat_atl main 496 436 O_____________ hurdat_atl AL021922 51.0000 -17.5000 EX 75 -4 13 85
1922256N10313 1922 49 NA NA NOT_NAMED 1922-09-25 15:00:00 ET 51.0281 -16.5747 main 436 383 P_____________ AL021922 51.0281 -16.5747 EX 75 -4 11 90
1922256N10313 1922 49 NA NA NOT_NAMED 1922-09-25 18:00:00 ET 51.0000 -15.8000 75 hurdat_atl main 383 339 O_____________ hurdat_atl AL021922 51.0000 -15.8000 EX 75 -4 10 96
1922256N10313 1922 49 NA NA NOT_NAMED 1922-09-25 21:00:00 ET 50.9220 -15.0199 main 333 291 P_____________ AL021922 50.9220 -15.0199 EX 72 -4 10 102
1922256N10313 1922 49 NA NA NOT_NAMED 1922-09-26 00:00:00 ET 50.8000 -14.3000 70 hurdat_atl main 291 252 O_____________ hurdat_atl AL021922 50.8000 -14.3000 EX 70 -4 9 106
1922256N10313 1922 49 NA NA NOT_NAMED 1922-09-26 03:00:00 ET 50.6722 -13.6130 main 252 229 P_____________ AL021922 50.6722 -13.6130 EX 67 -4 9 110
1922256N10313 1922 49 NA NA NOT_NAMED 1922-09-26 06:00:00 ET 50.5000 -13.0000 65 hurdat_atl main 229 215 O_____________ hurdat_atl AL021922 50.5000 -13.0000 EX 65 -4 8 119
1922256N10313 1922 49 NA NA NOT_NAMED 1922-09-26 09:00:00 ET 50.2645 -12.4778 main 215 212 P_____________ AL021922 50.2645 -12.4778 EX 62 -4 8 128
1922256N10313 1922 49 NA NA NOT_NAMED 1922-09-26 12:00:00 ET 50.0000 -12.0000 60 hurdat_atl main 217 213 O_____________ hurdat_atl AL021922 50.0000 -12.0000 EX 60 -4 8 131
1922256N10313 1922 49 NA NA NOT_NAMED 1922-09-26 15:00:00 ET 49.7123 -11.4994 main 223 219 P_____________ AL021922 49.7123 -11.4994 EX 55 -4 8 128
1922256N10313 1922 49 NA NA NOT_NAMED 1922-09-26 18:00:00 ET 49.5000 -11.0000 50 hurdat_atl main 227 216 O_____________ hurdat_atl AL021922 49.5000 -11.0000 EX 50 -4 7 111
1922256N10313 1922 49 NA NA NOT_NAMED 1922-09-26 21:00:00 ET 49.4623 -10.5012 main 216 211 P_____________ AL021922 49.4623 -10.5012 EX 50 -4 6 90
1922256N10313 1922 49 NA NA NOT_NAMED 1922-09-27 00:00:00 ET 49.5000 -10.0000 50 hurdat_atl main 211 210 O_____________ hurdat_atl AL021922 49.5000 -10.0000 EX 50 -4 6 87
1922256N10313 1922 49 NA NA NOT_NAMED 1922-09-27 03:00:00 ET 49.4998 -9.50000 main 211 211 P_____________ AL021922 49.4998 -9.50000 EX 47 -4 6 90
1922256N10313 1922 49 NA NA NOT_NAMED 1922-09-27 06:00:00 ET 49.5000 -9.00000 45 hurdat_atl main 218 210 O_____________ hurdat_atl AL021922 49.5000 -9.00000 EX 45 -4 6 90
1922256N10313 1922 49 NA NA NOT_NAMED 1922-09-27 09:00:00 ET 49.4998 -8.50000 main 210 177 P_____________ AL021922 49.4998 -8.50000 EX 42 -4 6 90
1922256N10313 1922 49 NA NA NOT_NAMED 1922-09-27 12:00:00 ET 49.5000 -8.00000 40 hurdat_atl main 177 151 O_____________ hurdat_atl AL021922 49.5000 -8.00000 EX 40 -4 6 90
1922256N10313 1922 49 NA NA NOT_NAMED 1922-09-27 15:00:00 ET 49.4988 -7.55996 main 151 114 P_____________ AL021922 49.4988 -7.55996 EX 40 -4 6 90
1922256N10313 1922 49 NA NA NOT_NAMED 1922-09-27 18:00:00 ET 49.5000 -7.00000 40 hurdat_atl main 114 75 O_____________ hurdat_atl AL021922 49.5000 -7.00000 EX 40 -4 9 90
1922256N10313 1922 49 NA NA NOT_NAMED 1922-09-27 21:00:00 ET 49.4997 -6.18991 main 75 55 P_____________ AL021922 49.4997 -6.18991 EX 37 -4 12 90
1922256N10313 1922 49 NA NA NOT_NAMED 1922-09-28 00:00:00 ET 49.5000 -5.20000 35 hurdat_atl main 55 55 O_____________ hurdat_atl AL021922 49.5000 -5.20000 EX 35 -4 13 90
1922256N10313 1922 49 NA NA NOT_NAMED 1922-09-28 03:00:00 ET 49.5021 -4.12009 main 80 77 P_____________ AL021922 49.5021 -4.12009 EX 32 -4 14 90
1922256N10313 1922 49 NA NA NOT_NAMED 1922-09-28 06:00:00 ET 49.5000 -3.00000 30 hurdat_atl main 78 O_____________ hurdat_atl AL021922 49.5000 -3.00000 EX 30 -4 14 90

About IBTrACS Database

This database is a web-friendly format of International Best Track Archive for Climate Stewardship (IBTrACS), a global best track data archive curated by NOAA dating back to 1842.

Updated: 2021-12-03